sensor_id;sensor_type;location;lat;lon;timestamp;P1;durP1;ratioP1;P2;durP2;ratioP2
56794;SDS011;42678;59.400;18.410;2022-12-20T00:02:22;28.10;;;14.60;;
56794;SDS011;42678;59.400;18.410;2022-12-20T00:04:48;27.50;;;14.32;;
56794;SDS011;42678;59.400;18.410;2022-12-20T00:07:13;24.40;;;12.32;;
56794;SDS011;42678;59.400;18.410;2022-12-20T00:09:39;25.60;;;13.75;;
56794;SDS011;42678;59.400;18.410;2022-12-20T00:12:04;27.23;;;15.15;;
56794;SDS011;42678;59.400;18.410;2022-12-20T00:14:30;23.83;;;14.35;;
56794;SDS011;42678;59.400;18.410;2022-12-20T00:16:56;28.10;;;15.43;;
56794;SDS011;42678;59.400;18.410;2022-12-20T00:19:21;27.13;;;15.93;;
56794;SDS011;42678;59.400;18.410;2022-12-20T00:21:47;27.38;;;15.55;;
56794;SDS011;42678;59.400;18.410;2022-12-20T00:24:13;29.77;;;16.17;;
56794;SDS011;42678;59.400;18.410;2022-12-20T00:26:38;32.35;;;17.02;;
56794;SDS011;42678;59.400;18.410;2022-12-20T00:29:04;27.58;;;14.95;;
56794;SDS011;42678;59.400;18.410;2022-12-20T00:31:30;25.73;;;15.18;;
56794;SDS011;42678;59.400;18.410;2022-12-20T00:33:56;26.95;;;15.38;;
56794;SDS011;42678;59.400;18.410;2022-12-20T00:36:23;25.95;;;15.15;;
56794;SDS011;42678;59.400;18.410;2022-12-20T00:38:49;25.63;;;14.73;;
56794;SDS011;42678;59.400;18.410;2022-12-20T00:41:16;29.00;;;17.45;;
56794;SDS011;42678;59.400;18.410;2022-12-20T00:43:43;28.17;;;14.52;;
56794;SDS011;42678;59.400;18.410;2022-12-20T00:46:09;30.30;;;15.93;;
56794;SDS011;42678;59.400;18.410;2022-12-20T00:48:36;25.77;;;13.88;;
56794;SDS011;42678;59.400;18.410;2022-12-20T00:51:03;25.85;;;15.85;;
56794;SDS011;42678;59.400;18.410;2022-12-20T00:53:29;29.73;;;15.50;;
56794;SDS011;42678;59.400;18.410;2022-12-20T00:55:54;27.77;;;15.75;;
56794;SDS011;42678;59.400;18.410;2022-12-20T00:58:20;29.38;;;16.42;;
56794;SDS011;42678;59.400;18.410;2022-12-20T01:00:45;24.88;;;15.27;;
56794;SDS011;42678;59.400;18.410;2022-12-20T01:03:11;30.30;;;16.15;;
56794;SDS011;42678;59.400;18.410;2022-12-20T01:05:36;28.67;;;16.00;;
56794;SDS011;42678;59.400;18.410;2022-12-20T01:08:02;23.58;;;14.95;;
56794;SDS011;42678;59.400;18.410;2022-12-20T01:10:27;27.02;;;15.80;;
56794;SDS011;42678;59.400;18.410;2022-12-20T01:12:53;25.13;;;14.57;;
56794;SDS011;42678;59.400;18.410;2022-12-20T01:15:18;27.95;;;16.90;;
56794;SDS011;42678;59.400;18.410;2022-12-20T01:17:44;26.80;;;16.45;;
56794;SDS011;42678;59.400;18.410;2022-12-20T01:20:10;29.90;;;18.05;;
56794;SDS011;42678;59.400;18.410;2022-12-20T01:22:35;31.58;;;16.48;;
56794;SDS011;42678;59.400;18.410;2022-12-20T01:25:01;33.45;;;17.05;;
56794;SDS011;42678;59.400;18.410;2022-12-20T01:27:26;28.73;;;16.67;;
56794;SDS011;42678;59.400;18.410;2022-12-20T01:29:53;31.52;;;17.15;;
56794;SDS011;42678;59.400;18.410;2022-12-20T01:32:19;33.53;;;17.67;;
56794;SDS011;42678;59.400;18.410;2022-12-20T01:34:44;27.48;;;17.30;;
56794;SDS011;42678;59.400;18.410;2022-12-20T01:37:10;31.90;;;17.88;;
56794;SDS011;42678;59.400;18.410;2022-12-20T01:39:35;34.22;;;17.02;;
56794;SDS011;42678;59.400;18.410;2022-12-20T01:42:03;32.47;;;17.90;;
56794;SDS011;42678;59.400;18.410;2022-12-20T01:46:55;31.17;;;16.20;;
56794;SDS011;42678;59.400;18.410;2022-12-20T01:49:28;33.20;;;18.17;;
56794;SDS011;42678;59.400;18.410;2022-12-20T01:52:05;30.27;;;16.98;;
56794;SDS011;42678;59.400;18.410;2022-12-20T01:57:06;34.80;;;19.63;;
56794;SDS011;42678;59.400;18.410;2022-12-20T01:59:34;36.90;;;19.45;;
56794;SDS011;42678;59.400;18.410;2022-12-20T02:02:02;39.42;;;20.05;;
56794;SDS011;42678;59.400;18.410;2022-12-20T02:04:29;34.72;;;18.92;;
56794;SDS011;42678;59.400;18.410;2022-12-20T02:06:55;35.22;;;19.10;;
56794;SDS011;42678;59.400;18.410;2022-12-20T02:09:23;34.58;;;18.55;;
56794;SDS011;42678;59.400;18.410;2022-12-20T02:16:49;37.47;;;19.42;;
56794;SDS011;42678;59.400;18.410;2022-12-20T02:21:45;33.90;;;18.95;;
56794;SDS011;42678;59.400;18.410;2022-12-20T02:24:24;38.17;;;19.55;;
56794;SDS011;42678;59.400;18.410;2022-12-20T02:27:16;31.02;;;18.63;;
56794;SDS011;42678;59.400;18.410;2022-12-20T02:35:06;33.17;;;19.00;;
56794;SDS011;42678;59.400;18.410;2022-12-20T02:37:32;35.95;;;18.27;;
56794;SDS011;42678;59.400;18.410;2022-12-20T02:39:57;34.45;;;17.75;;
56794;SDS011;42678;59.400;18.410;2022-12-20T02:42:23;34.00;;;18.98;;
56794;SDS011;42678;59.400;18.410;2022-12-20T02:45:05;38.15;;;19.50;;
56794;SDS011;42678;59.400;18.410;2022-12-20T02:50:30;37.75;;;19.88;;
56794;SDS011;42678;59.400;18.410;2022-12-20T02:52:57;38.85;;;18.50;;
56794;SDS011;42678;59.400;18.410;2022-12-20T02:55:25;33.30;;;17.45;;
56794;SDS011;42678;59.400;18.410;2022-12-20T02:57:57;32.40;;;18.15;;
56794;SDS011;42678;59.400;18.410;2022-12-20T03:00:24;36.95;;;17.98;;
56794;SDS011;42678;59.400;18.410;2022-12-20T03:05:42;37.72;;;19.00;;
56794;SDS011;42678;59.400;18.410;2022-12-20T03:08:08;35.65;;;19.48;;
56794;SDS011;42678;59.400;18.410;2022-12-20T03:10:33;29.42;;;15.63;;
56794;SDS011;42678;59.400;18.410;2022-12-20T03:13:00;36.15;;;18.25;;
56794;SDS011;42678;59.400;18.410;2022-12-20T03:15:25;34.80;;;16.83;;
56794;SDS011;42678;59.400;18.410;2022-12-20T03:17:51;38.00;;;19.25;;
56794;SDS011;42678;59.400;18.410;2022-12-20T03:20:16;33.00;;;17.55;;
56794;SDS011;42678;59.400;18.410;2022-12-20T03:22:41;33.88;;;18.85;;
56794;SDS011;42678;59.400;18.410;2022-12-20T03:25:07;36.65;;;18.27;;
56794;SDS011;42678;59.400;18.410;2022-12-20T03:27:32;37.97;;;18.70;;
56794;SDS011;42678;59.400;18.410;2022-12-20T03:29:58;33.78;;;18.95;;
56794;SDS011;42678;59.400;18.410;2022-12-20T03:32:23;34.50;;;19.08;;
56794;SDS011;42678;59.400;18.410;2022-12-20T03:34:48;39.95;;;19.40;;
56794;SDS011;42678;59.400;18.410;2022-12-20T03:37:14;34.97;;;18.85;;
56794;SDS011;42678;59.400;18.410;2022-12-20T03:39:41;40.28;;;19.02;;
56794;SDS011;42678;59.400;18.410;2022-12-20T03:42:06;39.13;;;19.42;;
56794;SDS011;42678;59.400;18.410;2022-12-20T03:44:33;31.58;;;16.60;;
56794;SDS011;42678;59.400;18.410;2022-12-20T03:46:58;43.47;;;19.63;;
56794;SDS011;42678;59.400;18.410;2022-12-20T03:49:25;37.00;;;18.65;;
56794;SDS011;42678;59.400;18.410;2022-12-20T03:51:51;39.13;;;19.33;;
56794;SDS011;42678;59.400;18.410;2022-12-20T03:54:16;39.20;;;19.55;;
56794;SDS011;42678;59.400;18.410;2022-12-20T03:56:42;38.50;;;19.88;;
56794;SDS011;42678;59.400;18.410;2022-12-20T03:59:07;44.40;;;19.63;;
56794;SDS011;42678;59.400;18.410;2022-12-20T04:01:33;45.25;;;21.52;;
56794;SDS011;42678;59.400;18.410;2022-12-20T04:04:02;38.55;;;18.58;;
56794;SDS011;42678;59.400;18.410;2022-12-20T04:06:28;34.35;;;18.20;;
56794;SDS011;42678;59.400;18.410;2022-12-20T04:08:53;40.80;;;21.48;;
56794;SDS011;42678;59.400;18.410;2022-12-20T04:11:19;40.22;;;19.85;;
56794;SDS011;42678;59.400;18.410;2022-12-20T04:13:48;40.50;;;20.20;;
56794;SDS011;42678;59.400;18.410;2022-12-20T04:16:14;38.45;;;18.48;;
56794;SDS011;42678;59.400;18.410;2022-12-20T04:18:40;41.60;;;19.98;;
56794;SDS011;42678;59.400;18.410;2022-12-20T04:21:06;34.65;;;18.55;;
56794;SDS011;42678;59.400;18.410;2022-12-20T04:23:32;30.80;;;16.52;;
56794;SDS011;42678;59.400;18.410;2022-12-20T04:25:58;32.80;;;17.15;;
56794;SDS011;42678;59.400;18.410;2022-12-20T04:28:23;34.05;;;18.02;;
56794;SDS011;42678;59.400;18.410;2022-12-20T04:30:49;36.15;;;18.38;;
56794;SDS011;42678;59.400;18.410;2022-12-20T04:33:14;41.50;;;18.58;;
56794;SDS011;42678;59.400;18.410;2022-12-20T04:35:40;37.60;;;19.50;;
56794;SDS011;42678;59.400;18.410;2022-12-20T04:38:05;39.40;;;21.02;;
56794;SDS011;42678;59.400;18.410;2022-12-20T04:40:30;33.80;;;17.58;;
56794;SDS011;42678;59.400;18.410;2022-12-20T04:42:56;37.08;;;18.67;;
56794;SDS011;42678;59.400;18.410;2022-12-20T04:45:21;39.42;;;19.55;;
56794;SDS011;42678;59.400;18.410;2022-12-20T04:47:46;37.08;;;18.00;;
56794;SDS011;42678;59.400;18.410;2022-12-20T04:50:12;44.80;;;21.92;;
56794;SDS011;42678;59.400;18.410;2022-12-20T04:52:37;44.13;;;20.23;;
56794;SDS011;42678;59.400;18.410;2022-12-20T04:55:22;40.22;;;19.75;;
56794;SDS011;42678;59.400;18.410;2022-12-20T04:57:48;39.42;;;19.48;;
56794;SDS011;42678;59.400;18.410;2022-12-20T05:00:14;41.20;;;18.60;;
56794;SDS011;42678;59.400;18.410;2022-12-20T05:02:40;41.30;;;19.13;;
56794;SDS011;42678;59.400;18.410;2022-12-20T05:05:06;37.45;;;18.23;;
56794;SDS011;42678;59.400;18.410;2022-12-20T05:07:31;41.03;;;18.30;;
56794;SDS011;42678;59.400;18.410;2022-12-20T05:09:57;34.67;;;16.65;;
56794;SDS011;42678;59.400;18.410;2022-12-20T05:12:22;36.85;;;17.25;;
56794;SDS011;42678;59.400;18.410;2022-12-20T05:14:47;41.05;;;19.38;;
56794;SDS011;42678;59.400;18.410;2022-12-20T05:17:13;38.80;;;16.38;;
56794;SDS011;42678;59.400;18.410;2022-12-20T05:19:38;31.83;;;15.45;;
56794;SDS011;42678;59.400;18.410;2022-12-20T05:22:04;36.08;;;16.73;;
56794;SDS011;42678;59.400;18.410;2022-12-20T05:24:47;35.30;;;17.73;;
56794;SDS011;42678;59.400;18.410;2022-12-20T05:27:31;39.65;;;17.50;;
56794;SDS011;42678;59.400;18.410;2022-12-20T05:29:57;35.22;;;16.88;;
56794;SDS011;42678;59.400;18.410;2022-12-20T05:32:22;34.28;;;17.60;;
56794;SDS011;42678;59.400;18.410;2022-12-20T05:34:48;34.03;;;16.10;;
56794;SDS011;42678;59.400;18.410;2022-12-20T05:37:13;26.73;;;14.25;;
56794;SDS011;42678;59.400;18.410;2022-12-20T05:39:38;30.00;;;14.23;;
56794;SDS011;42678;59.400;18.410;2022-12-20T05:42:04;26.77;;;14.05;;
56794;SDS011;42678;59.400;18.410;2022-12-20T05:44:29;40.63;;;15.68;;
56794;SDS011;42678;59.400;18.410;2022-12-20T05:46:54;25.88;;;11.85;;
56794;SDS011;42678;59.400;18.410;2022-12-20T05:49:20;32.13;;;13.68;;
56794;SDS011;42678;59.400;18.410;2022-12-20T05:51:45;27.10;;;13.05;;
56794;SDS011;42678;59.400;18.410;2022-12-20T05:54:11;29.48;;;13.57;;
56794;SDS011;42678;59.400;18.410;2022-12-20T05:56:36;28.73;;;14.55;;
56794;SDS011;42678;59.400;18.410;2022-12-20T05:59:02;19.58;;;10.65;;
56794;SDS011;42678;59.400;18.410;2022-12-20T06:01:27;19.95;;;11.80;;
56794;SDS011;42678;59.400;18.410;2022-12-20T06:03:53;32.13;;;14.75;;
56794;SDS011;42678;59.400;18.410;2022-12-20T06:06:18;25.05;;;13.27;;
56794;SDS011;42678;59.400;18.410;2022-12-20T06:08:43;25.52;;;12.70;;
56794;SDS011;42678;59.400;18.410;2022-12-20T06:11:09;33.38;;;15.73;;
56794;SDS011;42678;59.400;18.410;2022-12-20T06:13:34;36.45;;;17.08;;
56794;SDS011;42678;59.400;18.410;2022-12-20T06:16:00;23.85;;;11.95;;
56794;SDS011;42678;59.400;18.410;2022-12-20T06:18:25;20.65;;;11.43;;
56794;SDS011;42678;59.400;18.410;2022-12-20T06:20:51;22.77;;;10.38;;
56794;SDS011;42678;59.400;18.410;2022-12-20T06:23:16;19.63;;;10.82;;
56794;SDS011;42678;59.400;18.410;2022-12-20T06:25:42;22.70;;;11.30;;
56794;SDS011;42678;59.400;18.410;2022-12-20T06:28:08;21.20;;;11.23;;
56794;SDS011;42678;59.400;18.410;2022-12-20T06:30:33;19.70;;;11.43;;
56794;SDS011;42678;59.400;18.410;2022-12-20T06:33:00;22.48;;;11.48;;
56794;SDS011;42678;59.400;18.410;2022-12-20T06:35:26;21.98;;;12.07;;
56794;SDS011;42678;59.400;18.410;2022-12-20T06:37:51;20.50;;;11.38;;
56794;SDS011;42678;59.400;18.410;2022-12-20T06:40:17;23.23;;;11.27;;
56794;SDS011;42678;59.400;18.410;2022-12-20T06:42:42;19.60;;;11.68;;
56794;SDS011;42678;59.400;18.410;2022-12-20T06:45:08;19.42;;;10.40;;
56794;SDS011;42678;59.400;18.410;2022-12-20T06:47:34;17.20;;;10.25;;
56794;SDS011;42678;59.400;18.410;2022-12-20T06:49:59;24.45;;;12.15;;
56794;SDS011;42678;59.400;18.410;2022-12-20T06:52:25;20.35;;;10.95;;
56794;SDS011;42678;59.400;18.410;2022-12-20T06:54:50;21.40;;;11.27;;
56794;SDS011;42678;59.400;18.410;2022-12-20T06:57:16;37.47;;;23.38;;
56794;SDS011;42678;59.400;18.410;2022-12-20T06:59:41;21.63;;;11.77;;
56794;SDS011;42678;59.400;18.410;2022-12-20T07:02:09;21.50;;;11.30;;
56794;SDS011;42678;59.400;18.410;2022-12-20T07:04:34;18.10;;;9.63;;
56794;SDS011;42678;59.400;18.410;2022-12-20T07:06:59;25.20;;;11.35;;
56794;SDS011;42678;59.400;18.410;2022-12-20T07:09:25;19.88;;;10.68;;
56794;SDS011;42678;59.400;18.410;2022-12-20T07:11:50;29.50;;;14.27;;
56794;SDS011;42678;59.400;18.410;2022-12-20T07:14:16;26.75;;;14.75;;
56794;SDS011;42678;59.400;18.410;2022-12-20T07:16:41;20.00;;;10.82;;
56794;SDS011;42678;59.400;18.410;2022-12-20T07:19:11;17.88;;;10.57;;
56794;SDS011;42678;59.400;18.410;2022-12-20T07:21:36;17.13;;;9.70;;
56794;SDS011;42678;59.400;18.410;2022-12-20T07:24:02;17.45;;;9.88;;
56794;SDS011;42678;59.400;18.410;2022-12-20T07:26:27;18.27;;;10.50;;
56794;SDS011;42678;59.400;18.410;2022-12-20T07:28:52;17.90;;;9.32;;
56794;SDS011;42678;59.400;18.410;2022-12-20T07:31:18;19.85;;;9.25;;
56794;SDS011;42678;59.400;18.410;2022-12-20T07:33:43;16.67;;;9.27;;
56794;SDS011;42678;59.400;18.410;2022-12-20T07:36:10;21.40;;;10.25;;
56794;SDS011;42678;59.400;18.410;2022-12-20T07:38:36;20.35;;;10.93;;
56794;SDS011;42678;59.400;18.410;2022-12-20T07:41:06;32.08;;;10.00;;
56794;SDS011;42678;59.400;18.410;2022-12-20T07:43:32;17.52;;;9.52;;
56794;SDS011;42678;59.400;18.410;2022-12-20T07:45:57;15.05;;;9.55;;
56794;SDS011;42678;59.400;18.410;2022-12-20T07:48:23;18.10;;;10.30;;
56794;SDS011;42678;59.400;18.410;2022-12-20T07:50:50;17.55;;;10.43;;
56794;SDS011;42678;59.400;18.410;2022-12-20T07:53:16;16.52;;;8.63;;
56794;SDS011;42678;59.400;18.410;2022-12-20T07:55:42;17.10;;;9.18;;
56794;SDS011;42678;59.400;18.410;2022-12-20T07:58:07;15.80;;;10.45;;
56794;SDS011;42678;59.400;18.410;2022-12-20T08:00:34;14.65;;;8.52;;
56794;SDS011;42678;59.400;18.410;2022-12-20T08:05:29;14.63;;;7.43;;
56794;SDS011;42678;59.400;18.410;2022-12-20T08:07:55;13.68;;;8.70;;
56794;SDS011;42678;59.400;18.410;2022-12-20T08:10:23;14.80;;;8.57;;
56794;SDS011;42678;59.400;18.410;2022-12-20T08:12:49;17.15;;;9.23;;
56794;SDS011;42678;59.400;18.410;2022-12-20T08:15:14;15.38;;;9.02;;
56794;SDS011;42678;59.400;18.410;2022-12-20T08:17:39;14.50;;;8.18;;
56794;SDS011;42678;59.400;18.410;2022-12-20T08:20:05;13.45;;;8.77;;
56794;SDS011;42678;59.400;18.410;2022-12-20T08:22:33;15.70;;;9.43;;
56794;SDS011;42678;59.400;18.410;2022-12-20T08:24:58;12.80;;;8.18;;
56794;SDS011;42678;59.400;18.410;2022-12-20T08:27:24;15.02;;;7.28;;
56794;SDS011;42678;59.400;18.410;2022-12-20T08:29:49;16.70;;;8.43;;
56794;SDS011;42678;59.400;18.410;2022-12-20T08:32:15;19.27;;;11.25;;
56794;SDS011;42678;59.400;18.410;2022-12-20T08:34:40;16.15;;;8.18;;
56794;SDS011;42678;59.400;18.410;2022-12-20T08:37:06;10.68;;;7.38;;
56794;SDS011;42678;59.400;18.410;2022-12-20T08:39:31;11.48;;;7.30;;
56794;SDS011;42678;59.400;18.410;2022-12-20T08:41:57;14.25;;;7.43;;
56794;SDS011;42678;59.400;18.410;2022-12-20T08:44:22;11.63;;;6.55;;
56794;SDS011;42678;59.400;18.410;2022-12-20T08:46:47;11.52;;;7.45;;
56794;SDS011;42678;59.400;18.410;2022-12-20T08:49:13;11.10;;;7.47;;
56794;SDS011;42678;59.400;18.410;2022-12-20T08:51:38;13.15;;;7.50;;
56794;SDS011;42678;59.400;18.410;2022-12-20T08:54:04;11.48;;;7.45;;
56794;SDS011;42678;59.400;18.410;2022-12-20T08:56:29;11.13;;;6.88;;
56794;SDS011;42678;59.400;18.410;2022-12-20T08:58:55;11.63;;;7.05;;
56794;SDS011;42678;59.400;18.410;2022-12-20T09:01:21;11.05;;;7.13;;
56794;SDS011;42678;59.400;18.410;2022-12-20T09:03:47;11.30;;;7.15;;
56794;SDS011;42678;59.400;18.410;2022-12-20T09:06:13;10.93;;;6.72;;
56794;SDS011;42678;59.400;18.410;2022-12-20T09:08:40;11.07;;;6.60;;
56794;SDS011;42678;59.400;18.410;2022-12-20T09:11:06;9.50;;;6.25;;
56794;SDS011;42678;59.400;18.410;2022-12-20T09:13:32;9.82;;;6.18;;
56794;SDS011;42678;59.400;18.410;2022-12-20T09:16:01;8.90;;;5.50;;
56794;SDS011;42678;59.400;18.410;2022-12-20T09:18:27;11.52;;;6.20;;
56794;SDS011;42678;59.400;18.410;2022-12-20T09:20:52;10.73;;;5.88;;
56794;SDS011;42678;59.400;18.410;2022-12-20T09:23:17;10.68;;;6.03;;
56794;SDS011;42678;59.400;18.410;2022-12-20T09:25:43;10.05;;;6.82;;
56794;SDS011;42678;59.400;18.410;2022-12-20T09:28:09;11.30;;;6.00;;
56794;SDS011;42678;59.400;18.410;2022-12-20T09:30:34;13.52;;;7.13;;
56794;SDS011;42678;59.400;18.410;2022-12-20T09:33:00;17.55;;;8.10;;
56794;SDS011;42678;59.400;18.410;2022-12-20T09:35:25;13.55;;;6.85;;
56794;SDS011;42678;59.400;18.410;2022-12-20T09:37:51;17.85;;;7.57;;
56794;SDS011;42678;59.400;18.410;2022-12-20T09:40:17;19.17;;;8.75;;
56794;SDS011;42678;59.400;18.410;2022-12-20T09:42:43;36.58;;;13.23;;
56794;SDS011;42678;59.400;18.410;2022-12-20T09:45:10;21.25;;;10.10;;
56794;SDS011;42678;59.400;18.410;2022-12-20T09:47:37;32.90;;;16.05;;
56794;SDS011;42678;59.400;18.410;2022-12-20T09:50:03;21.73;;;9.30;;
56794;SDS011;42678;59.400;18.410;2022-12-20T09:59:58;14.75;;;8.43;;
56794;SDS011;42678;59.400;18.410;2022-12-20T10:02:24;14.07;;;8.35;;
56794;SDS011;42678;59.400;18.410;2022-12-20T10:04:50;12.88;;;8.15;;
56794;SDS011;42678;59.400;18.410;2022-12-20T10:23:02;14.63;;;7.82;;
56794;SDS011;42678;59.400;18.410;2022-12-20T10:25:32;12.73;;;7.30;;
56794;SDS011;42678;59.400;18.410;2022-12-20T10:28:00;14.88;;;8.15;;
56794;SDS011;42678;59.400;18.410;2022-12-20T10:30:27;12.18;;;7.57;;
56794;SDS011;42678;59.400;18.410;2022-12-20T10:32:53;12.63;;;8.10;;
56794;SDS011;42678;59.400;18.410;2022-12-20T10:35:26;34.17;;;22.40;;
56794;SDS011;42678;59.400;18.410;2022-12-20T10:40:29;15.48;;;8.90;;
56794;SDS011;42678;59.400;18.410;2022-12-20T10:42:54;15.70;;;8.00;;
56794;SDS011;42678;59.400;18.410;2022-12-20T10:47:45;11.90;;;6.45;;
56794;SDS011;42678;59.400;18.410;2022-12-20T10:50:16;11.07;;;7.03;;
56794;SDS011;42678;59.400;18.410;2022-12-20T10:52:43;10.50;;;7.28;;
56794;SDS011;42678;59.400;18.410;2022-12-20T10:57:53;11.52;;;7.22;;
56794;SDS011;42678;59.400;18.410;2022-12-20T11:00:28;15.93;;;8.50;;
56794;SDS011;42678;59.400;18.410;2022-12-20T11:03:15;14.18;;;7.70;;
56794;SDS011;42678;59.400;18.410;2022-12-20T11:05:51;18.25;;;10.88;;
56794;SDS011;42678;59.400;18.410;2022-12-20T11:08:17;10.80;;;6.95;;
56794;SDS011;42678;59.400;18.410;2022-12-20T11:10:44;13.90;;;7.78;;
56794;SDS011;42678;59.400;18.410;2022-12-20T11:16:05;12.07;;;7.07;;
56794;SDS011;42678;59.400;18.410;2022-12-20T11:31:34;10.90;;;7.03;;
56794;SDS011;42678;59.400;18.410;2022-12-20T11:34:18;16.23;;;7.68;;
56794;SDS011;42678;59.400;18.410;2022-12-20T11:39:26;15.07;;;8.35;;
56794;SDS011;42678;59.400;18.410;2022-12-20T11:42:08;13.18;;;7.13;;
56794;SDS011;42678;59.400;18.410;2022-12-20T11:55:21;11.82;;;7.85;;
56794;SDS011;42678;59.400;18.410;2022-12-20T12:00:12;12.45;;;8.00;;
56794;SDS011;42678;59.400;18.410;2022-12-20T12:05:19;10.73;;;7.07;;
56794;SDS011;42678;59.400;18.410;2022-12-20T12:07:46;10.98;;;8.05;;
56794;SDS011;42678;59.400;18.410;2022-12-20T12:10:18;11.90;;;7.03;;
56794;SDS011;42678;59.400;18.410;2022-12-20T12:12:46;11.25;;;8.20;;
56794;SDS011;42678;59.400;18.410;2022-12-20T12:18:02;16.55;;;9.00;;
56794;SDS011;42678;59.400;18.410;2022-12-20T12:26:01;9.25;;;7.63;;
56794;SDS011;42678;59.400;18.410;2022-12-20T12:28:29;14.23;;;8.07;;
56794;SDS011;42678;59.400;18.410;2022-12-20T12:31:14;10.98;;;7.90;;
56794;SDS011;42678;59.400;18.410;2022-12-20T12:46:54;11.05;;;6.95;;
56794;SDS011;42678;59.400;18.410;2022-12-20T12:49:23;11.32;;;7.35;;
56794;SDS011;42678;59.400;18.410;2022-12-20T12:51:53;9.32;;;6.60;;
56794;SDS011;42678;59.400;18.410;2022-12-20T12:54:22;14.82;;;7.63;;
56794;SDS011;42678;59.400;18.410;2022-12-20T12:56:49;12.68;;;7.95;;
56794;SDS011;42678;59.400;18.410;2022-12-20T12:59:20;11.52;;;7.25;;
56794;SDS011;42678;59.400;18.410;2022-12-20T13:01:48;10.55;;;6.85;;
56794;SDS011;42678;59.400;18.410;2022-12-20T13:11:51;11.20;;;6.50;;
56794;SDS011;42678;59.400;18.410;2022-12-20T13:19:35;7.72;;;5.93;;
56794;SDS011;42678;59.400;18.410;2022-12-20T13:29:53;11.95;;;5.80;;
56794;SDS011;42678;59.400;18.410;2022-12-20T13:35:12;12.10;;;5.97;;
56794;SDS011;42678;59.400;18.410;2022-12-20T13:40:20;9.25;;;6.50;;
56794;SDS011;42678;59.400;18.410;2022-12-20T13:42:47;11.30;;;6.32;;
56794;SDS011;42678;59.400;18.410;2022-12-20T13:45:15;8.80;;;6.38;;
56794;SDS011;42678;59.400;18.410;2022-12-20T13:47:43;14.25;;;7.55;;
56794;SDS011;42678;59.400;18.410;2022-12-20T13:50:30;9.65;;;5.90;;
56794;SDS011;42678;59.400;18.410;2022-12-20T13:52:56;6.78;;;5.35;;
56794;SDS011;42678;59.400;18.410;2022-12-20T13:55:30;8.60;;;6.30;;
56794;SDS011;42678;59.400;18.410;2022-12-20T13:57:56;8.25;;;5.82;;
56794;SDS011;42678;59.400;18.410;2022-12-20T14:00:23;10.80;;;6.43;;
56794;SDS011;42678;59.400;18.410;2022-12-20T14:02:52;11.63;;;6.18;;
56794;SDS011;42678;59.400;18.410;2022-12-20T14:05:26;9.02;;;6.20;;
56794;SDS011;42678;59.400;18.410;2022-12-20T14:10:24;11.57;;;7.80;;
56794;SDS011;42678;59.400;18.410;2022-12-20T14:12:50;10.38;;;6.65;;
56794;SDS011;42678;59.400;18.410;2022-12-20T14:15:27;15.85;;;6.97;;
56794;SDS011;42678;59.400;18.410;2022-12-20T14:17:52;15.07;;;7.53;;
56794;SDS011;42678;59.400;18.410;2022-12-20T14:20:21;12.30;;;6.95;;
56794;SDS011;42678;59.400;18.410;2022-12-20T14:25:17;10.52;;;7.05;;
56794;SDS011;42678;59.400;18.410;2022-12-20T14:27:47;8.60;;;6.20;;
56794;SDS011;42678;59.400;18.410;2022-12-20T14:30:24;15.43;;;6.30;;
56794;SDS011;42678;59.400;18.410;2022-12-20T14:32:51;10.68;;;6.53;;
56794;SDS011;42678;59.400;18.410;2022-12-20T14:35:17;9.77;;;6.85;;
56794;SDS011;42678;59.400;18.410;2022-12-20T14:37:50;8.95;;;5.82;;
56794;SDS011;42678;59.400;18.410;2022-12-20T14:40:17;8.95;;;6.25;;
56794;SDS011;42678;59.400;18.410;2022-12-20T14:42:43;9.65;;;5.90;;
56794;SDS011;42678;59.400;18.410;2022-12-20T14:47:36;15.63;;;6.03;;
56794;SDS011;42678;59.400;18.410;2022-12-20T14:52:46;24.38;;;16.13;;
56794;SDS011;42678;59.400;18.410;2022-12-20T14:55:15;12.45;;;8.05;;
56794;SDS011;42678;59.400;18.410;2022-12-20T14:57:43;11.52;;;6.57;;
56794;SDS011;42678;59.400;18.410;2022-12-20T15:00:23;11.95;;;7.45;;
56794;SDS011;42678;59.400;18.410;2022-12-20T15:08:19;18.45;;;8.85;;
56794;SDS011;42678;59.400;18.410;2022-12-20T15:10:51;18.15;;;8.63;;
56794;SDS011;42678;59.400;18.410;2022-12-20T15:13:18;16.95;;;8.50;;
56794;SDS011;42678;59.400;18.410;2022-12-20T15:15:44;23.10;;;9.73;;
56794;SDS011;42678;59.400;18.410;2022-12-20T15:18:14;23.15;;;9.65;;
56794;SDS011;42678;59.400;18.410;2022-12-20T15:20:43;16.90;;;9.02;;
56794;SDS011;42678;59.400;18.410;2022-12-20T15:23:11;26.73;;;9.32;;
56794;SDS011;42678;59.400;18.410;2022-12-20T15:25:38;26.38;;;11.02;;
56794;SDS011;42678;59.400;18.410;2022-12-20T15:28:16;28.40;;;11.77;;
56794;SDS011;42678;59.400;18.410;2022-12-20T15:30:43;22.48;;;9.82;;
56794;SDS011;42678;59.400;18.410;2022-12-20T15:33:13;18.55;;;9.20;;
56794;SDS011;42678;59.400;18.410;2022-12-20T15:35:39;25.35;;;11.15;;
56794;SDS011;42678;59.400;18.410;2022-12-20T15:38:04;23.15;;;11.82;;
56794;SDS011;42678;59.400;18.410;2022-12-20T15:40:30;20.45;;;10.32;;
56794;SDS011;42678;59.400;18.410;2022-12-20T15:42:55;21.23;;;10.52;;
56794;SDS011;42678;59.400;18.410;2022-12-20T15:45:21;19.98;;;9.40;;
56794;SDS011;42678;59.400;18.410;2022-12-20T15:47:47;28.42;;;10.98;;
56794;SDS011;42678;59.400;18.410;2022-12-20T15:50:14;26.55;;;10.73;;
56794;SDS011;42678;59.400;18.410;2022-12-20T15:52:39;19.70;;;10.73;;
56794;SDS011;42678;59.400;18.410;2022-12-20T15:55:05;17.05;;;8.77;;
56794;SDS011;42678;59.400;18.410;2022-12-20T15:57:31;20.50;;;9.98;;
56794;SDS011;42678;59.400;18.410;2022-12-20T15:59:56;26.10;;;11.32;;
56794;SDS011;42678;59.400;18.410;2022-12-20T16:02:26;24.85;;;11.50;;
56794;SDS011;42678;59.400;18.410;2022-12-20T16:04:52;24.60;;;11.13;;
56794;SDS011;42678;59.400;18.410;2022-12-20T16:07:17;25.20;;;11.15;;
56794;SDS011;42678;59.400;18.410;2022-12-20T16:09:43;26.58;;;10.88;;
56794;SDS011;42678;59.400;18.410;2022-12-20T16:12:15;24.23;;;11.75;;
56794;SDS011;42678;59.400;18.410;2022-12-20T16:14:42;21.20;;;11.43;;
56794;SDS011;42678;59.400;18.410;2022-12-20T16:17:14;20.83;;;10.95;;
56794;SDS011;42678;59.400;18.410;2022-12-20T16:19:40;22.88;;;10.60;;
56794;SDS011;42678;59.400;18.410;2022-12-20T16:22:16;25.77;;;11.35;;
56794;SDS011;42678;59.400;18.410;2022-12-20T16:24:42;21.92;;;9.73;;
56794;SDS011;42678;59.400;18.410;2022-12-20T16:27:08;28.92;;;11.77;;
56794;SDS011;42678;59.400;18.410;2022-12-20T16:29:34;28.92;;;12.15;;
56794;SDS011;42678;59.400;18.410;2022-12-20T16:32:00;21.70;;;10.63;;
56794;SDS011;42678;59.400;18.410;2022-12-20T16:34:25;26.73;;;12.35;;
56794;SDS011;42678;59.400;18.410;2022-12-20T16:36:51;24.80;;;11.10;;
56794;SDS011;42678;59.400;18.410;2022-12-20T16:39:17;26.95;;;11.35;;
56794;SDS011;42678;59.400;18.410;2022-12-20T16:41:42;34.50;;;13.20;;
56794;SDS011;42678;59.400;18.410;2022-12-20T16:44:17;30.02;;;12.48;;
56794;SDS011;42678;59.400;18.410;2022-12-20T16:46:43;38.33;;;14.00;;
56794;SDS011;42678;59.400;18.410;2022-12-20T16:49:10;42.08;;;12.95;;